الصفحة الرئيسية
METAR-TAF:

METAR-TAF

مطار :

مطار ميامي الدولي

ميامي, فلوريدا, الولايات المتحدة

دائرة عرض: 25-47-26N, خط طول: 080-18-59W, ارتفاع: 3 متر

مراقبة الطقس الحالي

تاريخ ووقت الإصدار 51 دقيقة قبل الساعة 08:53UTC
رياح هادئة
درجة الحرارة 26°درجة مئوية
الرطوبة 79%
ضغط 1015 hPa
الرؤية: 16.1 كم
غيوم قليلة على ارتفاع 2500 قدم
غيوم قليلة على ارتفاع 4000 قدم

METAR: KMIA 200853Z 00000KT 10SM FEW025 FEW040 26/22 A2998 RMK AO2 SLP151 T02560217 56007

زمن: 05:44 (09:44 UTC)

توقعات

تاريخ ووقت الإصدار 57 دقيقة قبل الساعة 08:47UTC
التوقعات صالحة من20 الساعة 09 UTC إلى 21 الساعة 12 UTC
ريح 5 عقدة من الشرق
الرؤية: 10 كم
غيوم متفرقة على ارتفاع 2500 قدم
من 20 الساعة 1400 UTC
ريح 12 عقدة من الشرق
الرؤية: 10 كم
غيوم متفرقة على ارتفاع 3000 قدم
من 21 الساعة 0300 UTC
ريح 6 عقدة من الشرق
الرؤية: 10 كم
غيوم قليلة على ارتفاع 3000 قدم

TAF: KMIA 200847Z 2009/2112 10005KT P6SM SCT025 FM201400 10012KT P6SM SCT030 FM210300 10006KT P6SM FEW030

أرصاد الطقس والتوقعات من أكثر من 4000 مطار (تقارير الطقس للمطار METAR والتنبؤ بالطقس بالمطارTAF).

المحطات المتاحة هي النقط الصفراء والحمراء على الخريطة.

حرك المؤشر فوق النقطة لمعرفة اسم المحطة.

ثم انقر لمعرفة أرصاد وتوقعات الطقس.

لتغيير الخارطة: اضغط على الأزرار الخضراء مع رمز الصليب الأسود للتكبير. على الزر الأخضر مع شرطة للتصغير، أو على الأسهم الخضراء للخرائط المجاورة.


METAR-TAF: